createdAt,value
2023-02-13T00:01:15.895Z,47.72
2023-02-13T00:03:43.853Z,46.50
2023-02-13T00:06:12.224Z,50.28
2023-02-13T00:08:40.120Z,49.38
2023-02-13T00:11:08.308Z,42.15
2023-02-13T00:13:36.481Z,48.72
2023-02-13T00:16:07.122Z,50.60
2023-02-13T00:18:36.562Z,43.85
2023-02-13T00:21:07.543Z,47.15
2023-02-13T00:23:36.710Z,48.63
2023-02-13T00:26:08.102Z,44.65
2023-02-13T00:28:36.217Z,45.15
2023-02-13T00:31:07.420Z,43.40
2023-02-13T00:33:35.695Z,61.72
2023-02-13T00:36:05.923Z,45.90
2023-02-13T00:38:33.894Z,47.67
2023-02-13T00:41:02.031Z,52.33
2023-02-13T00:43:30.035Z,49.15
2023-02-13T00:45:58.826Z,48.10
2023-02-13T00:48:30.159Z,50.28
2023-02-13T00:50:58.946Z,56.15
2023-02-13T00:53:28.250Z,46.90
2023-02-13T00:55:56.445Z,40.42
2023-02-13T00:58:25.224Z,39.60
2023-02-13T01:00:54.480Z,41.80
2023-02-13T01:03:23.329Z,44.17
2023-02-13T01:05:53.338Z,41.92
2023-02-13T01:08:22.077Z,50.42
2023-02-13T01:10:50.571Z,48.78
2023-02-13T01:13:19.518Z,41.33
2023-02-13T01:15:48.465Z,44.25
2023-02-13T01:18:17.670Z,56.97
2023-02-13T01:20:46.178Z,53.92
2023-02-13T01:23:15.432Z,64.68
2023-02-13T01:25:43.701Z,71.95
2023-02-13T01:28:11.673Z,72.63
2023-02-13T01:30:39.919Z,66.57
2023-02-13T01:33:07.910Z,53.47
2023-02-13T01:35:36.129Z,42.83
2023-02-13T01:38:04.023Z,40.50
2023-02-13T01:40:33.697Z,44.90
2023-02-13T01:43:01.675Z,52.80
2023-02-13T01:45:31.088Z,43.65
2023-02-13T01:48:01.371Z,48.60
2023-02-13T01:50:33.646Z,38.90
2023-02-13T01:53:05.316Z,48.88
2023-02-13T01:55:36.243Z,35.42
2023-02-13T01:58:08.137Z,36.05
2023-02-13T02:00:37.077Z,41.33
2023-02-13T02:03:07.930Z,39.13
2023-02-13T02:05:37.663Z,41.95
2023-02-13T02:08:08.891Z,40.17
2023-02-13T02:10:39.400Z,36.83
2023-02-13T02:13:11.582Z,40.15
2023-02-13T02:15:40.391Z,43.95
2023-02-13T02:18:14.180Z,41.90
2023-02-13T02:21:16.999Z,44.95
2023-02-13T02:24:02.817Z,34.03
2023-02-13T02:27:03.276Z,85.47
2023-02-13T02:29:56.983Z,51.65
2023-02-13T02:32:50.619Z,72.07
2023-02-13T02:35:27.110Z,102.05
2023-02-13T02:38:07.335Z,57.00
2023-02-13T02:40:42.592Z,46.75
2023-02-13T02:43:20.619Z,149.45
2023-02-13T02:45:54.265Z,163.07
2023-02-13T02:48:46.905Z,168.55
2023-02-13T02:51:21.915Z,169.32
2023-02-13T02:53:58.402Z,161.25
2023-02-13T02:56:29.408Z,149.30
2023-02-13T02:59:20.926Z,162.48
2023-02-13T03:02:07.836Z,159.13
2023-02-13T03:04:57.476Z,173.23
2023-02-13T03:07:25.643Z,183.82
2023-02-13T03:10:14.433Z,180.65
2023-02-13T03:13:04.929Z,198.15
2023-02-13T03:15:33.963Z,189.77
2023-02-13T03:18:19.466Z,217.85
2023-02-13T03:21:11.130Z,190.93
2023-02-13T03:23:47.227Z,181.60
2023-02-13T03:26:46.161Z,195.02
2023-02-13T03:29:39.554Z,196.18
2023-02-13T03:32:13.166Z,203.73
2023-02-13T03:35:04.500Z,211.48
2023-02-13T03:37:55.529Z,212.98
2023-02-13T03:40:27.945Z,237.45
2023-02-13T03:43:00.549Z,248.05
2023-02-13T03:48:31.718Z,258.80
2023-02-13T03:51:00.602Z,258.40
2023-02-13T03:53:31.231Z,252.10
2023-02-13T03:56:17.858Z,212.88
2023-02-13T03:59:06.324Z,211.95
2023-02-13T04:01:35.924Z,197.57
2023-02-13T04:04:09.123Z,189.35
2023-02-13T04:06:41.467Z,177.77
2023-02-13T04:09:11.012Z,149.65
2023-02-13T04:11:42.571Z,146.80
2023-02-13T04:14:16.780Z,143.80
2023-02-13T04:16:47.771Z,143.93
2023-02-13T04:19:16.858Z,148.82
2023-02-13T04:21:44.815Z,137.95
2023-02-13T04:24:14.355Z,148.05
2023-02-13T04:26:44.240Z,152.70
2023-02-13T04:29:12.411Z,168.90
2023-02-13T04:31:40.709Z,150.82
2023-02-13T04:34:08.931Z,161.80
2023-02-13T04:36:37.149Z,179.48
2023-02-13T04:39:05.378Z,168.63
2023-02-13T04:41:34.621Z,182.88
2023-02-13T04:44:03.226Z,182.80
2023-02-13T04:46:31.177Z,200.15
2023-02-13T04:48:59.371Z,164.93
2023-02-13T04:51:28.098Z,162.45
2023-02-13T04:53:56.310Z,165.77
2023-02-13T04:56:24.194Z,136.13
2023-02-13T04:58:53.806Z,161.30
2023-02-13T05:01:21.961Z,170.25
2023-02-13T05:03:50.494Z,148.55
2023-02-13T05:06:18.446Z,156.10
2023-02-13T05:08:46.628Z,140.13
2023-02-13T05:11:14.585Z,126.03
2023-02-13T05:13:42.760Z,107.63
2023-02-13T05:16:12.079Z,102.13
2023-02-13T05:18:40.291Z,111.53
2023-02-13T05:21:25.675Z,107.78
2023-02-13T05:23:53.962Z,107.57
2023-02-13T05:26:21.891Z,92.70
2023-02-13T05:29:07.633Z,94.38
2023-02-13T05:31:36.961Z,90.43
2023-02-13T05:34:05.309Z,82.00
2023-02-13T05:36:33.222Z,76.95
2023-02-13T05:39:01.622Z,85.00
2023-02-13T05:41:29.528Z,85.05
2023-02-13T05:43:57.708Z,80.70
2023-02-13T05:46:25.814Z,90.25
2023-02-13T05:48:55.339Z,86.03
2023-02-13T05:51:23.255Z,74.63
2023-02-13T05:53:51.552Z,81.10
2023-02-13T05:56:19.588Z,89.95
2023-02-13T05:58:47.758Z,87.03
2023-02-13T06:01:15.662Z,86.13
2023-02-13T06:03:43.866Z,90.03
2023-02-13T06:06:13.194Z,93.07
2023-02-13T06:08:41.402Z,94.13
2023-02-13T06:11:10.068Z,93.20
2023-02-13T06:13:40.603Z,93.57
2023-02-13T06:16:09.153Z,90.15
2023-02-13T06:18:37.788Z,100.10
2023-02-13T06:21:06.330Z,99.68
2023-02-13T06:23:36.407Z,89.03
2023-02-13T06:26:05.630Z,85.88
2023-02-13T06:28:33.894Z,84.53
2023-02-13T06:31:02.751Z,81.40
2023-02-13T06:33:31.109Z,75.72
2023-02-13T06:35:59.206Z,76.80
2023-02-13T06:38:27.496Z,68.85
2023-02-13T06:41:00.557Z,60.45
2023-02-13T06:43:28.927Z,57.75
2023-02-13T06:45:56.921Z,51.60
2023-02-13T06:48:25.487Z,46.47
2023-02-13T06:50:53.534Z,51.53
2023-02-13T06:53:24.641Z,52.53
2023-02-13T06:55:53.906Z,52.55
2023-02-13T06:58:24.697Z,56.10
2023-02-13T07:00:53.520Z,53.40
2023-02-13T07:03:21.985Z,47.53
2023-02-13T07:05:51.968Z,49.25
2023-02-13T07:08:20.301Z,52.13
2023-02-13T07:10:48.231Z,51.15
2023-02-13T07:13:16.440Z,55.55
2023-02-13T07:15:45.948Z,52.75
2023-02-13T07:18:14.223Z,63.72
2023-02-13T07:20:42.136Z,55.30
2023-02-13T07:23:11.649Z,58.90
2023-02-13T07:25:39.553Z,59.35
2023-02-13T07:28:08.332Z,61.40
2023-02-13T07:30:36.463Z,64.75
2023-02-13T07:33:06.314Z,64.47
2023-02-13T07:35:35.893Z,67.35
2023-02-13T07:38:04.281Z,62.95
2023-02-13T07:40:32.171Z,63.53
2023-02-13T07:43:02.188Z,56.20
2023-02-13T07:45:30.147Z,50.67
2023-02-13T07:47:58.502Z,58.63
2023-02-13T07:50:28.312Z,61.78
2023-02-13T07:52:56.866Z,56.10
2023-02-13T07:55:24.802Z,63.55
2023-02-13T07:57:53.176Z,52.60
2023-02-13T08:00:22.512Z,67.35
2023-02-13T08:02:50.715Z,69.50
2023-02-13T08:05:18.819Z,62.10
2023-02-13T08:07:48.362Z,65.35
2023-02-13T08:10:34.242Z,66.32
2023-02-13T08:13:02.434Z,65.13
2023-02-13T08:15:30.366Z,59.92
2023-02-13T08:17:58.537Z,66.85
2023-02-13T08:20:26.509Z,51.05
2023-02-13T08:22:56.115Z,41.45
2023-02-13T08:25:24.027Z,40.97
2023-02-13T08:27:52.229Z,39.72
2023-02-13T08:30:20.199Z,34.55
2023-02-13T08:32:54.341Z,32.38
2023-02-13T08:35:22.703Z,33.58
2023-02-13T08:37:50.925Z,33.55
2023-02-13T08:40:20.588Z,35.28
2023-02-13T08:42:48.910Z,34.88
2023-02-13T08:45:16.854Z,39.17
2023-02-13T08:47:45.018Z,39.53
2023-02-13T08:50:12.968Z,43.63
2023-02-13T08:52:41.246Z,44.88
2023-02-13T08:55:09.359Z,40.90
2023-02-13T08:57:38.843Z,39.70
2023-02-13T09:00:08.036Z,37.78
2023-02-13T09:02:36.298Z,41.20
2023-02-13T09:05:04.491Z,35.97
2023-02-13T09:07:32.709Z,29.92
2023-02-13T09:10:00.633Z,39.90
2023-02-13T09:12:28.806Z,28.45
2023-02-13T09:14:58.075Z,39.97
2023-02-13T09:17:26.357Z,38.58
2023-02-13T09:19:54.297Z,32.30
2023-02-13T09:22:22.630Z,32.83
2023-02-13T09:24:50.553Z,31.33
2023-02-13T09:27:18.842Z,33.42
2023-02-13T09:29:47.076Z,33.95
2023-02-13T09:32:17.184Z,35.22
2023-02-13T09:34:45.190Z,29.48
2023-02-13T09:37:13.382Z,28.70
2023-02-13T09:39:41.481Z,33.05
2023-02-13T09:42:18.740Z,24.92
2023-02-13T09:44:47.650Z,35.42
2023-02-13T09:47:18.897Z,28.15
2023-02-13T09:49:49.558Z,30.45
2023-02-13T09:52:17.954Z,28.67
2023-02-13T09:54:46.188Z,28.05
2023-02-13T09:57:21.139Z,23.55
2023-02-13T09:59:58.044Z,32.47
2023-02-13T10:02:50.995Z,33.50
2023-02-13T10:07:57.963Z,32.42
2023-02-13T10:10:31.289Z,25.67
2023-02-13T10:13:09.962Z,29.50
2023-02-13T10:15:44.254Z,27.67
2023-02-13T10:18:16.521Z,31.05
2023-02-13T10:20:47.570Z,28.48
2023-02-13T10:23:22.608Z,24.13
2023-02-13T10:25:53.539Z,23.70
2023-02-13T10:28:30.363Z,19.75
2023-02-13T10:31:00.978Z,23.67
2023-02-13T10:33:33.319Z,21.63
2023-02-13T10:36:03.881Z,17.83
2023-02-13T10:38:33.597Z,19.17
2023-02-13T10:41:07.826Z,18.77
2023-02-13T10:43:41.594Z,19.15
2023-02-13T10:46:18.758Z,21.55
2023-02-13T10:49:10.012Z,23.50
2023-02-13T10:51:43.425Z,28.73
2023-02-13T10:54:24.403Z,36.88
2023-02-13T10:56:57.998Z,32.88
2023-02-13T10:59:41.439Z,20.50
2023-02-13T11:02:22.615Z,24.15
2023-02-13T11:04:54.158Z,25.10
2023-02-13T11:07:25.399Z,16.42
2023-02-13T11:09:56.050Z,21.70
2023-02-13T11:12:28.939Z,16.65
2023-02-13T11:14:58.829Z,21.88
2023-02-13T11:17:30.231Z,22.38
2023-02-13T11:20:01.510Z,27.13
2023-02-13T11:22:33.236Z,22.15
2023-02-13T11:25:04.063Z,14.55
2023-02-13T11:27:35.338Z,18.77
2023-02-13T11:30:06.224Z,21.00
2023-02-13T11:32:35.427Z,25.55
2023-02-13T11:35:28.318Z,18.13
2023-02-13T11:40:41.697Z,25.40
2023-02-13T11:43:15.621Z,23.13
2023-02-13T11:45:44.790Z,24.45
2023-02-13T11:48:22.061Z,25.65
2023-02-13T11:50:56.137Z,22.23
2023-02-13T11:53:26.643Z,13.88
2023-02-13T11:56:11.896Z,14.30
2023-02-13T11:58:40.752Z,16.67
2023-02-13T12:01:28.365Z,15.75
2023-02-13T12:04:05.476Z,19.85
2023-02-13T12:06:39.809Z,17.48
2023-02-13T12:09:15.298Z,19.85
2023-02-13T12:11:46.569Z,18.20
2023-02-13T12:14:17.920Z,16.50
2023-02-13T12:16:50.544Z,20.60
2023-02-13T12:19:21.083Z,27.50
2023-02-13T12:22:06.322Z,26.52
2023-02-13T12:24:49.233Z,22.00
2023-02-13T12:27:21.327Z,20.58
2023-02-13T12:30:19.052Z,24.88
2023-02-13T12:32:55.605Z,25.30
2023-02-13T12:35:42.795Z,18.20
2023-02-13T12:38:21.371Z,20.40
2023-02-13T12:41:08.494Z,27.45
2023-02-13T12:43:55.217Z,31.33
2023-02-13T12:46:29.785Z,23.58
2023-02-13T12:49:04.667Z,23.30
2023-02-13T12:51:40.773Z,25.70
2023-02-13T12:54:27.466Z,23.38
2023-02-13T12:57:04.044Z,20.25
2023-02-13T12:59:46.543Z,18.02
2023-02-13T13:02:36.384Z,20.25
2023-02-13T13:05:13.980Z,25.05
2023-02-13T13:07:51.610Z,21.17
2023-02-13T13:10:30.798Z,14.40
2023-02-13T13:13:05.332Z,18.05
2023-02-13T13:15:37.050Z,19.90
2023-02-13T13:18:23.486Z,22.17
2023-02-13T13:21:05.079Z,17.20
2023-02-13T13:23:37.250Z,23.30
2023-02-13T13:26:15.746Z,20.60
2023-02-13T13:28:45.653Z,23.77
2023-02-13T13:31:14.582Z,19.15
2023-02-13T13:33:45.217Z,24.20
2023-02-13T13:36:17.510Z,23.55
2023-02-13T13:38:53.351Z,24.13
2023-02-13T13:41:29.669Z,22.83
2023-02-13T13:44:08.094Z,26.98
2023-02-13T13:46:45.512Z,27.23
2023-02-13T13:49:28.717Z,26.60
2023-02-13T13:52:11.492Z,27.90
2023-02-13T13:54:39.560Z,32.88
2023-02-13T13:57:13.583Z,35.22
2023-02-13T14:00:00.130Z,42.38
2023-02-13T14:02:39.702Z,34.55
2023-02-13T14:05:23.586Z,36.60
2023-02-13T14:07:53.656Z,36.72
2023-02-13T14:11:00.335Z,35.00
2023-02-13T14:13:35.386Z,31.35
2023-02-13T14:16:03.843Z,121.85
2023-02-13T14:18:32.670Z,33.20
2023-02-13T14:21:02.329Z,30.85
2023-02-13T14:23:49.632Z,22.73
2023-02-13T14:26:45.636Z,25.85
2023-02-13T14:29:34.054Z,30.70
2023-02-13T14:32:08.398Z,23.90
2023-02-13T14:34:38.884Z,34.65
2023-02-13T14:37:20.653Z,29.70
2023-02-13T14:40:28.864Z,26.55
2023-02-13T14:43:00.041Z,25.77
2023-02-13T14:45:33.213Z,29.27
2023-02-13T14:48:07.703Z,27.88
2023-02-13T14:50:45.718Z,28.13
2023-02-13T14:53:21.090Z,30.75
2023-02-13T14:55:52.328Z,29.10
2023-02-13T14:58:25.030Z,25.65
2023-02-13T15:00:58.715Z,29.70
2023-02-13T15:03:30.567Z,31.30
2023-02-13T15:06:02.314Z,26.95
2023-02-13T15:08:33.615Z,34.37
2023-02-13T15:11:02.507Z,31.63
2023-02-13T15:13:34.882Z,29.90
2023-02-13T15:16:06.595Z,31.75
2023-02-13T15:18:38.018Z,30.98
2023-02-13T15:21:06.827Z,32.95
2023-02-13T15:23:35.673Z,32.05
2023-02-13T15:26:05.511Z,37.42
2023-02-13T15:28:35.567Z,40.75
2023-02-13T15:31:06.644Z,41.88
2023-02-13T15:33:38.329Z,44.08
2023-02-13T15:36:07.670Z,47.80
2023-02-13T15:38:37.977Z,41.95
2023-02-13T15:41:09.000Z,40.88
2023-02-13T15:43:39.352Z,40.65
2023-02-13T15:46:20.685Z,43.63
2023-02-13T15:48:49.101Z,52.33
2023-02-13T15:51:20.574Z,64.25
2023-02-13T15:53:52.460Z,55.92
2023-02-13T15:58:48.961Z,38.15
2023-02-13T16:01:18.989Z,30.50
2023-02-13T16:03:48.942Z,31.42
2023-02-13T16:06:19.140Z,32.00
2023-02-13T16:08:52.969Z,29.77
2023-02-13T16:11:26.394Z,37.08
2023-02-13T16:14:12.040Z,37.65
2023-02-13T16:16:48.669Z,35.75
2023-02-13T16:19:28.552Z,42.92
2023-02-13T16:21:58.580Z,47.67
2023-02-13T16:24:27.165Z,47.95
2023-02-13T16:26:55.530Z,44.92
2023-02-13T16:29:26.169Z,48.40
2023-02-13T16:32:05.044Z,41.30
2023-02-13T16:34:33.459Z,45.38
2023-02-13T16:37:01.779Z,48.42
2023-02-13T16:39:31.451Z,45.17
2023-02-13T16:42:01.261Z,48.97
2023-02-13T16:44:30.585Z,48.10
2023-02-13T16:47:01.547Z,51.22
2023-02-13T16:49:31.188Z,55.58
2023-02-13T16:52:12.387Z,52.97
2023-02-13T16:54:53.768Z,47.03
2023-02-13T16:57:25.124Z,43.87
2023-02-13T16:59:57.074Z,46.05
2023-02-13T17:02:27.894Z,46.55
2023-02-13T17:04:57.688Z,46.83
2023-02-13T17:07:28.343Z,42.58
2023-02-13T17:10:01.293Z,36.20
2023-02-13T17:12:30.874Z,28.88
2023-02-13T17:14:59.911Z,32.58
2023-02-13T17:17:31.664Z,26.92
2023-02-13T17:19:59.874Z,21.15
2023-02-13T17:22:36.526Z,23.85
2023-02-13T17:25:07.372Z,27.05
2023-02-13T17:27:35.979Z,20.25
2023-02-13T17:30:04.582Z,17.58
2023-02-13T17:32:34.204Z,19.83
2023-02-13T17:35:02.143Z,20.58
2023-02-13T17:37:32.741Z,20.85
2023-02-13T17:40:00.735Z,16.33
2023-02-13T17:42:29.854Z,21.55
2023-02-13T17:44:59.358Z,30.08
2023-02-13T17:47:27.867Z,25.38
2023-02-13T17:50:08.332Z,23.45
2023-02-13T17:52:37.798Z,33.40
2023-02-13T17:55:06.563Z,32.60
2023-02-13T17:57:34.824Z,27.73
2023-02-13T18:00:05.005Z,30.42
2023-02-13T18:02:34.326Z,27.95
2023-02-13T18:05:03.679Z,28.50
2023-02-13T18:07:31.838Z,33.17
2023-02-13T18:09:59.741Z,30.15
2023-02-13T18:12:27.967Z,29.83
2023-02-13T18:14:56.050Z,30.13
2023-02-13T18:17:24.219Z,30.63
2023-02-13T18:19:52.475Z,27.00
2023-02-13T18:22:22.252Z,28.85
2023-02-13T18:24:50.546Z,26.05
2023-02-13T18:27:19.097Z,27.27
2023-02-13T18:29:47.136Z,35.72
2023-02-13T18:32:15.439Z,30.65
2023-02-13T18:34:43.408Z,26.45
2023-02-13T18:37:12.612Z,28.92
2023-02-13T18:39:41.863Z,32.50
2023-02-13T18:42:11.442Z,38.22
2023-02-13T18:44:39.658Z,33.35
2023-02-13T18:47:08.338Z,34.45
2023-02-13T18:49:36.368Z,29.17
2023-02-13T18:52:04.878Z,28.60
2023-02-13T18:54:32.958Z,26.65
2023-02-13T18:57:02.677Z,27.10
2023-02-13T18:59:30.621Z,24.83
2023-02-13T19:02:00.627Z,28.15
2023-02-13T19:04:29.264Z,28.13
2023-02-13T19:06:57.723Z,25.83
2023-02-13T19:09:25.608Z,26.27
2023-02-13T19:11:53.790Z,27.92
2023-02-13T19:14:25.156Z,23.30
2023-02-13T19:19:21.920Z,27.90
2023-02-13T19:21:50.358Z,30.00
2023-02-13T19:24:18.638Z,31.25
2023-02-13T19:26:47.175Z,26.88
2023-02-13T19:29:15.134Z,28.73
2023-02-13T19:31:44.737Z,28.58
2023-02-13T19:34:12.790Z,28.10
2023-02-13T19:36:40.957Z,29.83
2023-02-13T19:39:09.449Z,30.20
2023-02-13T19:41:39.720Z,31.52
2023-02-13T19:44:08.625Z,32.03
2023-02-13T19:46:37.882Z,30.80
2023-02-13T19:49:07.497Z,30.75
2023-02-13T19:51:36.087Z,37.72
2023-02-13T19:54:06.315Z,32.85
2023-02-13T19:56:36.648Z,38.40
2023-02-13T19:59:05.170Z,36.08
2023-02-13T20:01:33.707Z,36.80
2023-02-13T20:04:01.775Z,36.20
2023-02-13T20:06:34.984Z,38.35
2023-02-13T20:09:05.463Z,37.22
2023-02-13T20:11:33.677Z,34.60
2023-02-13T20:14:01.743Z,38.92
2023-02-13T20:16:33.015Z,41.28
2023-02-13T20:19:03.695Z,40.05
2023-02-13T20:21:34.378Z,41.75
2023-02-13T20:24:03.861Z,45.57
2023-02-13T20:26:32.426Z,49.35
2023-02-13T20:29:00.515Z,47.35
2023-02-13T20:31:30.138Z,47.53
2023-02-13T20:33:59.073Z,54.38
2023-02-13T20:36:28.841Z,49.67
2023-02-13T20:39:00.230Z,55.60
2023-02-13T20:41:30.351Z,49.30
2023-02-13T20:43:59.429Z,59.97
2023-02-13T20:46:27.934Z,59.60
2023-02-13T20:48:55.832Z,60.78
2023-02-13T20:51:24.291Z,69.72
2023-02-13T20:53:52.243Z,57.33
2023-02-13T20:56:23.431Z,66.90
2023-02-13T20:58:53.136Z,60.80
2023-02-13T21:01:25.656Z,62.90
2023-02-13T21:06:24.582Z,57.58
2023-02-13T21:08:52.709Z,67.53
2023-02-13T21:11:23.123Z,52.40
2023-02-13T21:13:51.391Z,46.38
2023-02-13T21:16:21.051Z,52.03
2023-02-13T21:18:49.597Z,41.30
2023-02-13T21:21:18.610Z,44.50
2023-02-13T21:23:46.565Z,44.40
2023-02-13T21:26:16.380Z,55.95
2023-02-13T21:28:46.901Z,47.83
2023-02-13T21:31:16.510Z,48.72
2023-02-13T21:33:44.620Z,46.80
2023-02-13T21:36:13.709Z,50.45
2023-02-13T21:38:42.647Z,51.03
2023-02-13T21:41:12.956Z,58.30
2023-02-13T21:43:42.166Z,47.40
2023-02-13T21:46:13.113Z,54.95
2023-02-13T21:48:41.735Z,60.40
2023-02-13T21:51:11.392Z,53.88
2023-02-13T21:53:39.822Z,59.13
2023-02-13T21:56:12.256Z,62.15
2023-02-13T21:58:41.416Z,66.15
2023-02-13T22:01:23.809Z,69.60
2023-02-13T22:03:53.734Z,63.53
2023-02-13T22:06:22.149Z,75.25
2023-02-13T22:08:50.642Z,66.15
2023-02-13T22:11:19.258Z,62.65
2023-02-13T22:13:47.189Z,61.13
2023-02-13T22:16:17.036Z,61.92
2023-02-13T22:18:48.062Z,53.00
2023-02-13T22:21:18.467Z,58.78
2023-02-13T22:23:47.274Z,69.82
2023-02-13T22:26:17.502Z,67.00
2023-02-13T22:28:45.808Z,63.17
2023-02-13T22:31:16.162Z,68.93
2023-02-13T22:33:47.775Z,73.80
2023-02-13T22:36:22.044Z,63.08
2023-02-13T22:38:51.092Z,67.05
2023-02-13T22:41:21.419Z,74.30
2023-02-13T22:43:49.587Z,70.35
2023-02-13T22:46:21.053Z,68.38
2023-02-13T22:48:51.942Z,67.15
2023-02-13T22:51:21.890Z,68.80
2023-02-13T22:53:50.307Z,78.22
2023-02-13T22:56:18.489Z,80.88
2023-02-13T22:58:46.392Z,73.13
2023-02-13T23:01:15.866Z,76.15
2023-02-13T23:03:45.424Z,81.03
2023-02-13T23:06:15.312Z,79.70
2023-02-13T23:08:43.656Z,75.68
2023-02-13T23:11:31.256Z,78.40
2023-02-13T23:13:59.620Z,78.72
2023-02-13T23:16:28.453Z,75.15
2023-02-13T23:18:57.794Z,79.85
2023-02-13T23:21:26.471Z,89.53
2023-02-13T23:23:54.380Z,78.60
2023-02-13T23:26:22.530Z,93.07
2023-02-13T23:28:50.400Z,78.15
2023-02-13T23:31:18.656Z,82.57
2023-02-13T23:33:46.614Z,92.10
2023-02-13T23:36:16.360Z,87.63
2023-02-13T23:38:44.755Z,84.70
2023-02-13T23:41:12.940Z,90.82
2023-02-13T23:43:40.951Z,89.25
2023-02-13T23:46:09.311Z,87.65
2023-02-13T23:48:37.216Z,87.20
2023-02-13T23:51:05.662Z,88.60
2023-02-13T23:53:37.937Z,89.50
2023-02-13T23:56:06.983Z,82.00
2023-02-13T23:58:35.008Z,81.75
